Pagina principale
METAR-TAF:

METAR-TAF

Aeroporti :

Ísafjörður, Islanda

latitudine: 66-03-29N, longitudine: 23-08-07W, altezza: 2 m

Osservazione

Il bollettino è stato emesso 12 ore e 2 minuti fa, alle 19:00 UTC
Vento 14 kt da ovest con raffiche fino a 24 kt
Temperature 14°C
Umidità 67%
Pressione 1022 hPa
Visibilità 10 km o più
Poco nuvoloso ad un'altezza di 1800 ft
Nuvoloso ad un'altezza di 2500 ft

METAR: BIIS 261900Z 26014G24KT 9999 FEW018 BKN025 14/08 Q1022 RMK 08 270 18G28

Ora: 07:02 (07:02 UTC)

Previsione

Il bollettino è stato emesso 14 ore e 55 minuti fa, alle 16:07 UTC
Previsione valida dal 26 alle 17 UTC al 27 alle 02 UTC
Vento 15 kt da sud-ovest con raffiche fino a 25 kt
Visibilità 10 km o più
Nubi sparse ad un'altezza di 2500 ft
Evoluzione graduale
dal 26 alle 20 UTC al 26 alle 22 UTC
Nuvoloso ad un'altezza di 1500 ft
pioggia debole

TAF: BIIS 261607Z 2617/2702 23015G25KT 9999 SCT025 BECMG 2620/2622 -RA BKN015

Osservazioni e previsioni meteorologiche di più di 4000 aeroporti (messaggi METAR e TAF).

Le stazioni disponibili sono rappresentate dai dischi gialli e rossi sulla carta.

Puntare il mouse per vedere il nome della stazione.

Clicca sopra per visualizzare le osservazioni e previsioni meteorologiche.

Per cambiare la mappa : fare clic sui pulsanti verdi con una croce nera per ingrandire, il pulsante verde con un trattino per diminuire, o sulla freccia verde per le mappe adiacenti.


METAR-TAF: